Time;durP1;ratioP1;P1;durP2;ratioP2;P2;SDS_P1;SDS_P2;PMS_P1;PMS_P2;Temp;Humidity;BMP_temperature;BMP_pressure;BME280_temperature;BME280_humidity;BME280_pressure;Samples;Min_cycle;Max_cycle;Signal;HPM_P1;HPM_P2
2022/04/14 00:01:43;;;;;;;6.40;3.77;;;12.20;99.90;;;;;;5000762;28;20189;-79
2022/04/14 00:04:09;;;;;;;4.47;3.70;;;12.00;99.90;;;;;;5018161;28;20201;-78
2022/04/14 00:06:35;;;;;;;4.83;3.57;;;11.90;99.90;;;;;;5034738;28;20254;-78
2022/04/14 00:09:00;;;;;;;3.60;3.30;;;11.80;99.90;;;;;;5018043;28;20208;-78
2022/04/14 00:11:26;;;;;;;4.70;3.27;;;11.70;99.90;;;;;;5018021;28;20264;-78
2022/04/14 00:13:52;;;;;;;4.43;3.50;;;11.50;99.90;;;;;;5017847;28;20198;-79
2022/04/14 00:16:17;;;;;;;4.83;3.60;;;11.50;99.90;;;;;;5001720;28;20188;-78
2022/04/14 00:18:43;;;;;;;4.73;3.43;;;11.50;99.90;;;;;;5018060;28;20201;-78
2022/04/14 00:21:09;;;;;;;4.90;3.23;;;11.30;99.90;;;;;;5017957;28;20195;-78
2022/04/14 00:23:34;;;;;;;5.13;3.03;;;11.30;99.90;;;;;;5017809;28;20689;-78
2022/04/14 00:26:00;;;;;;;4.23;3.40;;;11.30;99.90;;;;;;5017841;28;20292;-78
2022/04/14 00:28:25;;;;;;;4.30;3.30;;;11.30;99.90;;;;;;5001417;28;20177;-78
2022/04/14 00:30:51;;;;;;;6.57;3.50;;;11.40;99.90;;;;;;5001531;28;20185;-79
2022/04/14 00:33:17;;;;;;;5.30;3.30;;;11.40;99.90;;;;;;5001503;28;20181;-79
2022/04/14 00:35:43;;;;;;;4.37;3.47;;;11.50;99.90;;;;;;5001810;28;20711;-78
2022/04/14 00:38:09;;;;;;;3.73;3.33;;;11.60;99.90;;;;;;5034225;28;20175;-78
2022/04/14 00:40:34;;;;;;;4.23;3.30;;;11.50;99.90;;;;;;5034191;28;20549;-79
2022/04/14 00:43:00;;;;;;;4.67;3.53;;;11.40;99.90;;;;;;5001133;28;20182;-78
2022/04/14 00:45:26;;;;;;;5.27;3.50;;;11.50;99.90;;;;;;5017965;28;20194;-78
2022/04/14 00:47:53;;;;;;;4.23;3.40;;;11.60;99.90;;;;;;5017578;28;20213;-78
2022/04/14 00:50:19;;;;;;;4.43;3.23;;;11.60;99.90;;;;;;5017690;28;20177;-78
2022/04/14 00:52:46;;;;;;;4.37;3.23;;;11.50;99.90;;;;;;5017426;28;20177;-78
2022/04/14 00:55:13;;;;;;;5.73;3.70;;;11.50;99.90;;;;;;5001234;28;20209;-78
2022/04/14 00:57:38;;;;;;;4.13;3.33;;;11.50;99.90;;;;;;5034353;28;20208;-78
2022/04/14 01:00:05;;;;;;;5.43;3.33;;;11.50;99.90;;;;;;5017728;28;20209;-78
2022/04/14 01:02:31;;;;;;;4.60;3.50;;;11.40;99.90;;;;;;5001052;28;20188;-78
2022/04/14 01:04:58;;;;;;;4.20;3.00;;;11.40;99.90;;;;;;5001374;28;20615;-77
2022/04/14 01:07:25;;;;;;;5.33;3.60;;;11.40;99.90;;;;;;5017556;28;20255;-78
2022/04/14 01:09:51;;;;;;;5.43;3.50;;;11.40;99.90;;;;;;5017786;28;20174;-78
2022/04/14 01:12:17;;;;;;;4.53;3.73;;;11.40;99.90;;;;;;5017251;28;20178;-79
2022/04/14 01:14:43;;;;;;;5.13;3.30;;;11.30;99.90;;;;;;5020708;28;20201;-78
2022/04/14 01:17:09;;;;;;;4.40;3.53;;;11.30;99.90;;;;;;5021308;28;20645;-78
2022/04/14 01:19:36;;;;;;;5.07;3.40;;;11.10;99.90;;;;;;5037720;28;20205;-78
2022/04/14 01:22:18;;;;;;;4.57;3.30;;;11.10;99.90;;;;;;5004194;28;20185;-78
2022/04/14 01:24:43;;;;;;;3.90;3.23;;;11.10;99.90;;;;;;5037553;28;20600;-78
2022/04/14 01:27:09;;;;;;;4.00;3.20;;;11.10;99.90;;;;;;5004731;28;20684;-78
2022/04/14 01:29:35;;;;;;;4.17;3.40;;;10.90;99.90;;;;;;5004784;28;20530;-78
2022/04/14 01:32:02;;;;;;;4.53;3.37;;;10.80;99.90;;;;;;5004487;28;20275;-78
2022/04/14 01:34:30;;;;;;;5.20;3.20;;;10.70;99.90;;;;;;5037078;28;20570;-78
2022/04/14 01:36:57;;;;;;;3.83;3.33;;;10.80;99.90;;;;;;5055268;28;20162;-77
2022/04/14 01:39:23;;;;;;;5.50;4.17;;;11.00;99.90;;;;;;5004950;28;20189;-78
2022/04/14 01:41:49;;;;;;;4.83;4.03;;;11.00;99.90;;;;;;5020929;28;20178;-78
2022/04/14 01:44:14;;;;;;;4.27;3.87;;;11.00;99.90;;;;;;5037262;28;20190;-78
2022/04/14 01:46:41;;;;;;;9.17;3.83;;;10.90;99.90;;;;;;5020685;28;20213;-78
2022/04/14 01:49:10;;;;;;;5.70;4.03;;;11.00;99.90;;;;;;5004565;28;20170;-78
2022/04/14 01:51:36;;;;;;;5.33;3.87;;;10.90;99.90;;;;;;5020609;28;20174;-78
2022/04/14 01:54:02;;;;;;;4.30;3.70;;;10.80;99.90;;;;;;5004239;28;20205;-78
2022/04/14 01:56:28;;;;;;;5.40;3.80;;;10.70;99.90;;;;;;5020694;28;20178;-78
2022/04/14 01:58:53;;;;;;;6.77;3.67;;;10.70;99.90;;;;;;5020519;28;20682;-78
2022/04/14 02:01:19;;;;;;;5.50;3.50;;;10.70;99.90;;;;;;5020513;28;20185;-78
2022/04/14 02:03:46;;;;;;;5.20;3.80;;;10.60;99.90;;;;;;5036501;28;20635;-78
2022/04/14 02:06:11;;;;;;;4.30;3.47;;;10.50;99.90;;;;;;5036774;28;20296;-78
2022/04/14 02:08:37;;;;;;;5.03;3.33;;;10.50;99.90;;;;;;5020548;28;20276;-78
2022/04/14 02:11:03;;;;;;;5.27;3.60;;;10.40;99.90;;;;;;5003941;28;20196;-78
2022/04/14 02:13:30;;;;;;;3.77;3.37;;;10.40;99.90;;;;;;5020050;28;20180;-78
2022/04/14 02:15:55;;;;;;;5.83;3.57;;;10.30;99.90;;;;;;5036644;28;20178;-78
2022/04/14 02:18:21;;;;;;;5.33;3.30;;;10.10;99.90;;;;;;5020056;28;20178;-78
2022/04/14 02:20:46;;;;;;;5.70;2.93;;;10.10;99.90;;;;;;5003554;28;20641;-78
2022/04/14 02:23:12;;;;;;;4.03;3.23;;;10.10;99.90;;;;;;5019954;28;20182;-78
2022/04/14 02:25:38;;;;;;;3.67;3.17;;;10.10;99.90;;;;;;5002491;28;20573;-78
2022/04/14 02:28:03;;;;;;;5.73;2.97;;;10.30;99.90;;;;;;5003532;28;20221;-78
2022/04/14 02:30:29;;;;;;;3.50;3.20;;;10.40;99.90;;;;;;5003614;28;20173;-78
2022/04/14 02:32:55;;;;;;;4.87;3.27;;;10.40;99.90;;;;;;5036255;28;20178;-78
2022/04/14 02:35:20;;;;;;;5.60;3.30;;;10.40;99.90;;;;;;5003270;28;20197;-78
2022/04/14 02:37:46;;;;;;;4.43;3.13;;;10.50;99.90;;;;;;5003767;28;20277;-78
2022/04/14 02:40:12;;;;;;;4.63;3.03;;;10.60;99.90;;;;;;5019880;28;20268;-78
2022/04/14 02:42:37;;;;;;;4.17;3.10;;;10.60;99.90;;;;;;5003221;28;20219;-78
2022/04/14 02:45:03;;;;;;;4.30;3.10;;;10.60;99.90;;;;;;5019610;28;20223;-77
2022/04/14 02:47:29;;;;;;;6.40;3.37;;;10.60;99.90;;;;;;5003546;28;20212;-79
2022/04/14 02:49:55;;;;;;;3.70;3.00;;;10.40;99.90;;;;;;5019723;28;20206;-79
2022/04/14 02:52:20;;;;;;;4.93;3.17;;;10.40;99.90;;;;;;5019530;28;20216;-78
2022/04/14 02:54:46;;;;;;;6.60;3.50;;;10.40;99.90;;;;;;5019483;28;20213;-78
2022/04/14 02:57:12;;;;;;;5.90;3.27;;;10.30;99.90;;;;;;5035786;28;20185;-78
2022/04/14 02:59:38;;;;;;;5.80;3.37;;;10.30;99.90;;;;;;5002938;28;20206;-78
2022/04/14 03:02:04;;;;;;;5.23;3.50;;;10.30;99.90;;;;;;5053503;28;20212;-78
2022/04/14 03:04:30;;;;;;;4.80;3.70;;;10.30;99.90;;;;;;5019162;28;20259;-79
2022/04/14 03:06:56;;;;;;;4.30;3.70;;;10.30;99.90;;;;;;5019144;28;20209;-79
2022/04/14 03:09:22;;;;;;;4.10;3.70;;;10.30;99.90;;;;;;5035642;28;20209;-78
2022/04/14 03:11:48;;;;;;;5.33;3.67;;;10.30;99.90;;;;;;5035751;28;20173;-78
2022/04/14 03:14:14;;;;;;;5.07;3.70;;;10.30;99.90;;;;;;5018936;28;20255;-78
2022/04/14 03:16:39;;;;;;;4.77;3.90;;;10.30;99.90;;;;;;5002713;28;20178;-78
2022/04/14 03:19:05;;;;;;;7.17;4.00;;;10.20;99.90;;;;;;5018939;28;20235;-78
2022/04/14 03:21:31;;;;;;;6.10;4.03;;;10.20;99.90;;;;;;5018607;28;20189;-78
2022/04/14 03:23:56;;;;;;;6.30;4.30;;;10.30;99.90;;;;;;5002570;28;20279;-78
2022/04/14 03:26:22;;;;;;;10.07;6.40;;;10.40;99.90;;;;;;5035312;28;20201;-78
2022/04/14 03:28:47;;;;;;;10.00;6.90;;;10.40;99.90;;;;;;5002388;28;20223;-78
2022/04/14 03:31:13;;;;;;;7.93;4.00;;;10.30;99.90;;;;;;5035290;28;20218;-77
2022/04/14 03:33:39;;;;;;;5.53;4.27;;;10.10;99.90;;;;;;5002101;28;20185;-78
2022/04/14 03:36:04;;;;;;;5.13;3.63;;;10.20;99.90;;;;;;5018392;28;20699;-78
2022/04/14 03:38:31;;;;;;;7.67;3.83;;;10.10;99.90;;;;;;5002443;28;20184;-78
2022/04/14 03:40:57;;;;;;;6.60;4.03;;;10.10;99.90;;;;;;5018883;28;20185;-78
2022/04/14 03:43:22;;;;;;;5.60;4.27;;;10.10;99.90;;;;;;5018447;28;20178;-78
2022/04/14 03:45:48;;;;;;;6.83;5.00;;;10.10;99.90;;;;;;5034674;28;20202;-78
2022/04/14 03:48:14;;;;;;;7.70;5.30;;;10.10;99.90;;;;;;5018859;28;20243;-77
2022/04/14 03:50:39;;;;;;;6.73;5.23;;;10.20;99.90;;;;;;5002077;28;20230;-78
2022/04/14 03:53:05;;;;;;;8.00;4.77;;;10.30;99.90;;;;;;5001992;28;20551;-78
2022/04/14 03:55:31;;;;;;;7.07;4.73;;;10.40;99.90;;;;;;5034457;28;20266;-78
2022/04/14 03:57:56;;;;;;;6.83;4.20;;;10.50;99.90;;;;;;5018304;28;20185;-79
2022/04/14 04:00:22;;;;;;;5.73;4.53;;;10.50;99.90;;;;;;5018203;28;20607;-78
2022/04/14 04:02:48;;;;;;;5.50;4.73;;;10.60;99.90;;;;;;5034729;28;20193;-78
2022/04/14 04:05:13;;;;;;;5.77;4.77;;;10.50;99.90;;;;;;5018129;28;20672;-78
2022/04/14 04:07:39;;;;;;;7.33;4.80;;;10.50;99.90;;;;;;5001865;28;20213;-78
2022/04/14 04:10:06;;;;;;;6.33;5.03;;;10.40;99.90;;;;;;5018280;28;20185;-78
2022/04/14 04:12:31;;;;;;;5.37;4.30;;;10.40;99.90;;;;;;5001584;28;20272;-78
2022/04/14 04:14:57;;;;;;;5.60;4.17;;;10.40;99.90;;;;;;5034543;28;20280;-78
2022/04/14 04:17:23;;;;;;;5.10;4.10;;;10.50;99.90;;;;;;5018218;28;20312;-78
2022/04/14 04:19:48;;;;;;;6.37;4.60;;;10.60;99.90;;;;;;5018097;28;20199;-77
2022/04/14 04:22:14;;;;;;;6.57;4.10;;;10.70;99.90;;;;;;5017458;28;20188;-78
2022/04/14 04:24:40;;;;;;;6.00;4.00;;;10.70;99.90;;;;;;5001543;28;20208;-78
2022/04/14 04:27:06;;;;;;;6.23;4.43;;;10.70;99.90;;;;;;5017951;28;20255;-79
2022/04/14 04:29:32;;;;;;;6.90;4.60;;;10.80;99.90;;;;;;5017738;28;20193;-78
2022/04/14 04:31:57;;;;;;;7.33;4.40;;;10.80;99.90;;;;;;5017975;28;20177;-79
2022/04/14 04:34:23;;;;;;;7.13;4.33;;;10.80;99.90;;;;;;5034384;28;20233;-77
2022/04/14 04:36:49;;;;;;;7.80;4.50;;;10.80;99.90;;;;;;5001851;28;20671;-78
2022/04/14 04:39:15;;;;;;;6.27;4.90;;;10.80;99.90;;;;;;5001457;28;20177;-77
2022/04/14 04:41:41;;;;;;;5.90;4.10;;;10.80;99.90;;;;;;5017903;28;20177;-77
2022/04/14 04:44:06;;;;;;;7.43;4.70;;;10.80;99.90;;;;;;5001133;28;20196;-77
2022/04/14 04:46:32;;;;;;;8.47;5.27;;;10.70;99.90;;;;;;5001752;28;20212;-77
2022/04/14 04:48:58;;;;;;;7.00;4.93;;;10.80;99.90;;;;;;5036654;28;20177;-77
2022/04/14 04:51:27;;;;;;;8.57;5.53;;;10.70;99.90;;;;;;5038170;28;20173;-77
2022/04/14 04:53:53;;;;;;;6.60;5.20;;;10.70;99.90;;;;;;5022228;28;20202;-77
2022/04/14 04:56:19;;;;;;;9.80;5.93;;;10.80;99.90;;;;;;5021903;28;20181;-78
2022/04/14 04:58:45;;;;;;;5.83;4.73;;;10.80;99.90;;;;;;5021618;28;20181;-78
2022/04/14 05:01:12;;;;;;;8.93;4.77;;;10.70;99.90;;;;;;5038148;28;20189;-78
2022/04/14 05:03:38;;;;;;;9.47;5.27;;;10.70;99.90;;;;;;5021202;28;20181;-77
2022/04/14 05:06:03;;;;;;;6.20;4.50;;;10.80;99.90;;;;;;5037919;28;20600;-78
2022/04/14 05:08:29;;;;;;;6.10;4.70;;;10.80;99.90;;;;;;5021466;28;20174;-78
2022/04/14 05:10:55;;;;;;;6.30;4.70;;;10.80;99.90;;;;;;5037877;28;20177;-78
2022/04/14 05:13:20;;;;;;;8.33;4.40;;;10.90;99.90;;;;;;5055298;28;20162;-78
2022/04/14 05:15:46;;;;;;;7.40;4.37;;;10.90;99.90;;;;;;5021465;28;20230;-78
2022/04/14 05:18:12;;;;;;;5.43;4.63;;;10.90;99.90;;;;;;5037992;28;20201;-78
2022/04/14 05:20:39;;;;;;;7.03;4.70;;;10.90;99.90;;;;;;5020970;28;20229;-78
2022/04/14 05:23:09;;;;;;;6.93;4.60;;;11.00;99.90;;;;;;5021365;28;20660;-78
2022/04/14 05:25:35;;;;;;;7.90;6.83;;;11.00;99.90;;;;;;5037519;28;20198;-78
2022/04/14 05:28:01;;;;;;;6.97;5.43;;;11.10;99.90;;;;;;5005110;28;20305;-79
2022/04/14 05:30:27;;;;;;;6.13;4.90;;;11.10;99.90;;;;;;5004743;28;20261;-78
2022/04/14 05:32:52;;;;;;;6.50;5.07;;;11.10;99.90;;;;;;5021201;28;20174;-78
2022/04/14 05:35:18;;;;;;;7.07;4.90;;;11.10;99.90;;;;;;5037454;28;20636;-78
2022/04/14 05:37:44;;;;;;;9.17;8.17;;;11.20;99.90;;;;;;5020809;28;20208;-78
2022/04/14 05:40:09;;;;;;;12.67;9.00;;;11.20;99.90;;;;;;5020759;28;20189;-78
2022/04/14 05:42:35;;;;;;;7.17;5.50;;;11.30;99.90;;;;;;5020809;28;20603;-78
2022/04/14 05:45:01;;;;;;;6.30;5.10;;;11.40;99.90;;;;;;5020681;28;20236;-78
2022/04/14 05:47:27;;;;;;;6.90;5.30;;;11.40;99.90;;;;;;5020772;28;20686;-78
2022/04/14 05:49:53;;;;;;;9.50;5.77;;;11.50;99.90;;;;;;5005051;28;20199;-78
2022/04/14 05:52:20;;;;;;;11.30;6.20;;;11.50;99.90;;;;;;5036965;28;20542;-78
2022/04/14 05:54:47;;;;;;;8.20;6.00;;;11.60;99.90;;;;;;5004398;28;20556;-77
2022/04/14 05:57:13;;;;;;;9.37;6.13;;;11.70;99.90;;;;;;5037348;28;20621;-78
2022/04/14 05:59:39;;;;;;;6.93;6.10;;;11.80;99.90;;;;;;5020718;28;20212;-78
2022/04/14 06:02:05;;;;;;;9.50;7.03;;;11.90;99.90;;;;;;5020488;28;20209;-77
2022/04/14 06:04:30;;;;;;;10.60;7.83;;;11.90;99.90;;;;;;5003959;28;20282;-78
2022/04/14 06:06:56;;;;;;;15.67;11.17;;;12.00;99.90;;;;;;5036739;28;20626;-78
2022/04/14 06:09:21;;;;;;;15.27;10.80;;;12.10;99.90;;;;;;5003914;28;20183;-78
2022/04/14 06:11:47;;;;;;;13.63;10.50;;;12.20;99.90;;;;;;5020102;28;20177;-78
2022/04/14 06:14:13;;;;;;;13.53;10.07;;;12.30;99.90;;;;;;5036883;28;20670;-77
2022/04/14 06:16:38;;;;;;;13.87;10.73;;;12.40;99.90;;;;;;5004023;28;20180;-78
2022/04/14 06:19:04;;;;;;;16.40;11.47;;;12.50;99.90;;;;;;5003885;28;20656;-78
2022/04/14 06:21:30;;;;;;;17.17;12.43;;;12.60;99.90;;;;;;5019625;28;20182;-78
2022/04/14 06:23:56;;;;;;;17.50;12.97;;;12.60;99.90;;;;;;5019737;28;20247;-78
2022/04/14 06:26:22;;;;;;;17.87;13.40;;;12.70;99.90;;;;;;5019912;28;20205;-78
2022/04/14 06:28:48;;;;;;;15.80;11.77;;;12.80;99.90;;;;;;5036478;28;20267;-77
2022/04/14 06:31:14;;;;;;;20.33;16.37;;;12.80;99.90;;;;;;5020009;28;20275;-78
2022/04/14 06:33:40;;;;;;;18.80;14.03;;;12.90;99.90;;;;;;5036039;28;20180;-77
2022/04/14 06:36:05;;;;;;;22.17;15.57;;;13.00;99.90;;;;;;5019713;28;20266;-78
2022/04/14 06:38:31;;;;;;;20.07;15.00;;;13.10;99.90;;;;;;5020045;28;20265;-77
2022/04/14 06:40:56;;;;;;;27.40;22.37;;;13.20;99.90;;;;;;5003262;28;20173;-78
2022/04/14 06:43:24;;;;;;;37.53;29.83;;;13.30;99.90;;;;;;5019722;28;20177;-78
2022/04/14 06:46:09;;;;;;;23.77;15.37;;;13.40;99.90;;;;;;5036244;28;20281;-77
2022/04/14 06:48:34;;;;;;;19.33;13.87;;;13.50;99.90;;;;;;5020289;28;20181;-78
2022/04/14 06:51:00;;;;;;;20.13;14.10;;;13.50;99.90;;;;;;5019976;28;20336;-77
2022/04/14 06:53:26;;;;;;;20.33;14.03;;;13.60;99.90;;;;;;5019764;28;20189;-77
2022/04/14 06:59:14;;;;;;;20.60;12.67;;;13.60;99.90;;;;;;5054226;28;20235;-78
2022/04/14 07:01:40;;;;;;;17.33;13.17;;;13.70;99.90;;;;;;5019947;28;20194;-77
2022/04/14 07:04:06;;;;;;;21.33;13.57;;;13.70;99.90;;;;;;5003141;28;20572;-78
2022/04/14 07:06:31;;;;;;;17.47;12.17;;;13.80;99.90;;;;;;5003545;28;20209;-77
2022/04/14 07:08:57;;;;;;;16.97;12.20;;;13.90;99.90;;;;;;5036466;28;20233;-77
2022/04/14 07:11:23;;;;;;;16.43;11.50;;;13.90;99.90;;;;;;5019067;28;20183;-77
2022/04/14 07:13:48;;;;;;;16.87;11.40;;;14.00;99.90;;;;;;5018916;28;20208;-77
2022/04/14 07:16:14;;;;;;;17.50;11.83;;;14.00;99.90;;;;;;5018946;28;20182;-78
2022/04/14 07:18:40;;;;;;;17.67;11.60;;;14.00;99.90;;;;;;5002904;28;20178;-78
2022/04/14 07:21:06;;;;;;;16.97;11.20;;;14.10;99.90;;;;;;5019382;28;20170;-77
2022/04/14 07:23:32;;;;;;;17.10;11.50;;;14.20;99.90;;;;;;5035195;28;20177;-78
2022/04/14 07:25:57;;;;;;;18.00;11.73;;;14.30;99.90;;;;;;5018841;28;20228;-78
2022/04/14 07:28:23;;;;;;;16.30;11.43;;;14.20;99.90;;;;;;5019154;28;20230;-77
2022/04/14 07:30:49;;;;;;;15.70;11.03;;;14.30;99.90;;;;;;5018757;28;20177;-78
2022/04/14 07:33:14;;;;;;;15.60;11.73;;;14.30;99.90;;;;;;5035223;28;20604;-78
2022/04/14 07:35:40;;;;;;;16.57;11.13;;;14.40;99.90;;;;;;5018741;28;20201;-77
2022/04/14 07:38:06;;;;;;;15.30;10.93;;;14.50;99.90;;;;;;5015033;28;20236;-77
2022/04/14 07:40:31;;;;;;;17.50;12.03;;;14.50;99.90;;;;;;5034988;28;20178;-77
2022/04/14 07:43:01;;;;;;;15.43;11.23;;;14.60;99.90;;;;;;5017915;28;20255;-77
2022/04/14 07:45:27;;;;;;;16.80;11.77;;;14.70;99.90;;;;;;5033076;28;20624;-77
2022/04/14 07:47:52;;;;;;;17.53;12.13;;;14.90;99.90;;;;;;5000080;28;20202;-77
2022/04/14 07:50:20;;;;;;;18.47;11.90;;;15.00;99.90;;;;;;5023271;28;20636;-78
2022/04/14 07:52:56;;;;;;;14.70;11.43;;;15.10;99.90;;;;;;5017571;28;20261;-77
2022/04/14 07:55:29;;;;;;;18.07;12.63;;;15.10;99.90;;;;;;5014761;28;20253;-77
2022/04/14 07:57:57;;;;;;;19.70;12.90;;;15.00;99.90;;;;;;5033841;28;20177;-77
2022/04/14 08:00:24;;;;;;;21.33;15.00;;;15.10;99.90;;;;;;5000407;28;20272;-77
2022/04/14 08:02:56;;;;;;;14.33;11.83;;;15.10;99.90;;;;;;5033859;28;20178;-77
2022/04/14 08:05:29;;;;;;;16.13;10.93;;;15.20;99.90;;;;;;5034174;28;20193;-77
2022/04/14 08:07:56;;;;;;;17.47;12.70;;;15.40;99.90;;;;;;5051706;28;20197;-77
2022/04/14 08:10:21;;;;;;;18.33;13.53;;;15.50;99.90;;;;;;5017769;28;20550;-77
2022/04/14 08:12:47;;;;;;;28.37;20.33;;;15.60;99.90;;;;;;5032474;28;20652;-77
2022/04/14 08:15:14;;;;;;;17.03;12.67;;;15.60;99.90;;;;;;4998007;28;20202;-77
2022/04/14 08:17:41;;;;;;;21.00;15.43;;;15.70;99.90;;;;;;4999638;28;20182;-77
2022/04/14 08:20:08;;;;;;;21.10;16.07;;;15.90;99.90;;;;;;5014270;28;20182;-77
2022/04/14 08:22:54;;;;;;;16.73;12.83;;;16.00;99.90;;;;;;4988201;28;20179;-77
2022/04/14 08:25:24;;;;;;;16.33;11.43;;;16.10;99.90;;;;;;5049418;28;20189;-77
2022/04/14 08:27:51;;;;;;;17.07;9.60;;;16.20;99.90;;;;;;5034355;28;20185;-78
2022/04/14 08:30:20;;;;;;;12.80;9.70;;;16.30;99.90;;;;;;5035004;28;20166;-77
2022/04/14 08:32:47;;;;;;;26.20;20.10;;;16.40;99.90;;;;;;5006504;28;20178;-77
2022/04/14 08:35:14;;;;;;;18.07;14.20;;;16.40;99.90;;;;;;5016052;28;20557;-77
2022/04/14 08:37:41;;;;;;;12.70;10.00;;;16.50;99.90;;;;;;5018296;28;20182;-77
2022/04/14 08:40:09;;;;;;;12.57;8.87;;;16.50;99.90;;;;;;5018026;28;20240;-77
2022/04/14 08:42:44;;;;;;;11.10;8.23;;;16.50;99.90;;;;;;5017252;28;20204;-77
2022/04/14 08:45:14;;;;;;;10.40;8.50;;;16.50;99.90;;;;;;5051869;28;20275;-77
2022/04/14 08:47:40;;;;;;;12.63;8.47;;;16.50;99.90;;;;;;5018363;28;20714;-77
2022/04/14 08:50:09;;;;;;;13.97;8.97;;;16.50;99.90;;;;;;5034562;28;20208;-77
2022/04/14 08:52:37;;;;;;;12.33;8.30;;;16.40;99.90;;;;;;5033867;28;20197;-77
2022/04/14 08:55:11;;;;;;;12.83;8.20;;;16.40;99.90;;;;;;5033687;28;20224;-77
2022/04/14 08:57:38;;;;;;;12.80;7.40;;;16.40;99.90;;;;;;4991159;28;20711;-77
2022/04/14 09:00:06;;;;;;;21.20;14.77;;;16.30;99.90;;;;;;5035646;28;20556;-77
2022/04/14 09:02:34;;;;;;;9.77;6.97;;;16.20;99.90;;;;;;5017500;28;20335;-77
2022/04/14 09:05:00;;;;;;;9.57;7.27;;;16.10;99.90;;;;;;5051999;28;20201;-77
2022/04/14 09:07:27;;;;;;;11.60;8.97;;;16.00;99.90;;;;;;5034113;28;20282;-77
2022/04/14 09:09:53;;;;;;;11.60;8.20;;;15.90;99.90;;;;;;5018174;28;20236;-79
2022/04/14 09:12:18;;;;;;;10.27;8.43;;;15.90;99.90;;;;;;5051577;28;20245;-78
2022/04/14 09:14:48;;;;;;;17.10;12.70;;;15.80;99.90;;;;;;5034463;28;20267;-78
2022/04/14 09:17:14;;;;;;;13.07;8.43;;;15.90;99.90;;;;;;5035145;28;20227;-82
2022/04/14 09:19:41;;;;;;;21.57;14.57;;;15.90;99.90;;;;;;5034495;28;20174;-76
2022/04/14 09:22:12;;;;;;;11.83;8.47;;;16.00;99.90;;;;;;5033638;28;20205;-79
2022/04/14 09:24:44;;;;;;;10.87;9.00;;;15.90;99.90;;;;;;5052452;28;20714;-80
2022/04/14 09:27:26;;;;;;;14.50;9.30;;;15.80;99.90;;;;;;5034159;28;20197;-77
2022/04/14 09:29:53;;;;;;;13.73;9.53;;;15.80;99.90;;;;;;5017561;28;20166;-78
2022/04/14 09:32:38;;;;;;;11.17;8.90;;;15.90;99.90;;;;;;5014268;28;20553;-77
2022/04/14 09:35:14;;;;;;;38.37;25.30;;;15.80;99.90;;;;;;5014863;28;20198;-78
2022/04/14 09:37:40;;;;;;;11.13;8.90;;;15.90;99.90;;;;;;5000540;28;20197;-78
2022/04/14 09:40:10;;;;;;;19.10;13.83;;;15.90;99.90;;;;;;4999457;28;20661;-78
2022/04/14 09:42:41;;;;;;;15.23;9.63;;;15.80;99.90;;;;;;5032945;28;20257;-78
2022/04/14 09:45:20;;;;;;;13.37;9.50;;;15.80;99.90;;;;;;5052520;28;20201;-78
2022/04/14 09:47:50;;;;;;;13.37;9.20;;;15.90;99.90;;;;;;5070907;28;20223;-77
2022/04/14 09:50:25;;;;;;;10.63;8.93;;;15.90;99.90;;;;;;5057449;28;20676;-78
2022/04/14 09:53:06;;;;;;;11.73;9.23;;;15.80;99.90;;;;;;5057180;28;20168;-76
2022/04/14 09:55:36;;;;;;;14.40;10.37;;;15.80;99.90;;;;;;5040907;28;20208;-77
2022/04/14 09:58:05;;;;;;;14.00;9.53;;;15.70;99.90;;;;;;5054360;28;20204;-77
2022/04/14 10:00:42;;;;;;;12.57;10.40;;;15.60;99.90;;;;;;5057638;28;20204;-76
2022/04/14 10:03:11;;;;;;;15.93;10.50;;;15.50;99.90;;;;;;5067133;28;20657;-76
2022/04/14 10:05:38;;;;;;;12.40;10.07;;;15.50;99.90;;;;;;5037223;28;20716;-77
2022/04/14 10:08:08;;;;;;;12.73;9.57;;;15.50;99.90;;;;;;5037226;28;20228;-78
2022/04/14 10:10:38;;;;;;;13.30;9.17;;;15.50;99.90;;;;;;5037654;28;20252;-77
2022/04/14 10:13:09;;;;;;;13.37;10.20;;;15.40;99.90;;;;;;5036986;28;20162;-77
2022/04/14 10:15:55;;;;;;;12.77;10.37;;;15.40;99.90;;;;;;5036775;28;20193;-77
2022/04/14 10:18:21;;;;;;;14.50;10.00;;;15.30;99.90;;;;;;5020436;28;20186;-77
2022/04/14 10:20:47;;;;;;;11.50;9.20;;;15.40;99.90;;;;;;5020868;28;20174;-77
2022/04/14 10:23:15;;;;;;;14.17;10.30;;;15.50;99.90;;;;;;5036386;28;20181;-77
2022/04/14 10:25:42;;;;;;;15.33;9.33;;;15.70;99.90;;;;;;5004650;28;20201;-77
2022/04/14 10:28:17;;;;;;;13.53;9.63;;;15.80;99.90;;;;;;5054532;28;20190;-77
2022/04/14 10:30:47;;;;;;;13.07;9.30;;;15.90;99.90;;;;;;5054662;28;20184;-77
2022/04/14 10:33:14;;;;;;;11.77;9.60;;;16.00;99.90;;;;;;5040854;28;20181;-77
2022/04/14 10:35:40;;;;;;;13.80;9.67;;;16.10;99.90;;;;;;5054575;28;20221;-77
2022/04/14 10:38:21;;;;;;;12.43;8.83;;;16.10;99.90;;;;;;5020352;28;20184;-77
2022/04/14 10:41:13;;;;;;;12.77;9.27;;;16.00;99.90;;;;;;5036923;28;20208;-77
2022/04/14 10:43:41;;;;;;;13.87;9.27;;;16.00;99.90;;;;;;5035869;28;20173;-77
2022/04/14 10:46:07;;;;;;;12.47;9.50;;;15.90;99.90;;;;;;5053340;28;20176;-77
2022/04/14 10:48:33;;;;;;;14.70;8.87;;;15.80;99.90;;;;;;5019953;28;20181;-77
2022/04/14 10:51:19;;;;;;;12.03;9.50;;;15.80;99.90;;;;;;5020280;28;20198;-77
2022/04/14 10:54:04;;;;;;;13.97;8.63;;;15.70;99.90;;;;;;5019580;28;20585;-77
2022/04/14 10:56:42;;;;;;;10.63;8.47;;;15.70;99.90;;;;;;5036616;28;20519;-77
2022/04/14 10:59:31;;;;;;;10.93;8.33;;;15.60;99.90;;;;;;5047603;28;20233;-77
2022/04/14 11:02:02;;;;;;;11.83;8.83;;;15.60;99.90;;;;;;5033576;28;20634;-76
2022/04/14 11:04:52;;;;;;;12.77;9.20;;;15.70;99.90;;;;;;5000745;28;20750;-77
2022/04/14 11:07:23;;;;;;;11.20;7.90;;;15.60;99.90;;;;;;5006511;28;20206;-79
2022/04/14 11:09:59;;;;;;;10.90;7.83;;;15.60;99.90;;;;;;5016348;28;20185;-77
2022/04/14 11:12:40;;;;;;;11.30;8.23;;;15.70;99.90;;;;;;5015911;28;20527;-77
2022/04/14 11:15:08;;;;;;;13.90;5.93;;;15.70;99.90;;;;;;5017054;28;20197;-77
2022/04/14 11:17:42;;;;;;;11.60;6.00;;;15.80;99.90;;;;;;5035984;28;20174;-77
2022/04/14 11:20:20;;;;;;;8.70;6.17;;;16.00;99.90;;;;;;5053795;28;20173;-77
2022/04/14 11:23:12;;;;;;;7.77;6.57;;;16.10;99.90;;;;;;5035370;28;20716;-77
2022/04/14 11:25:49;;;;;;;7.77;6.40;;;16.10;99.90;;;;;;5035810;28;20194;-77
2022/04/14 11:28:36;;;;;;;7.07;6.10;;;16.00;99.90;;;;;;5053782;28;20270;-77
2022/04/14 11:31:02;;;;;;;9.90;6.20;;;15.90;99.90;;;;;;5019266;28;20265;-77
2022/04/14 11:33:28;;;;;;;11.73;6.60;;;15.70;99.90;;;;;;5035557;28;20249;-77
2022/04/14 11:36:27;;;;;;;8.00;6.40;;;15.60;99.90;;;;;;5035847;28;20239;-77
2022/04/14 11:38:58;;;;;;;7.33;6.20;;;15.50;99.90;;;;;;5035869;28;20180;-77
2022/04/14 11:41:36;;;;;;;6.80;5.73;;;15.50;99.90;;;;;;5035881;28;20178;-77
2022/04/14 11:44:04;;;;;;;8.33;6.10;;;15.50;99.90;;;;;;5003036;28;20211;-77
2022/04/14 11:46:31;;;;;;;8.93;6.37;;;15.60;99.90;;;;;;5002699;28;20197;-77
2022/04/14 11:48:59;;;;;;;8.97;6.10;;;15.80;99.90;;;;;;5035775;28;20237;-77
2022/04/14 11:51:24;;;;;;;8.07;6.33;;;15.90;99.90;;;;;;5035275;28;20228;-77
2022/04/14 11:53:53;;;;;;;8.47;5.50;;;16.00;99.90;;;;;;5018074;28;20198;-77
2022/04/14 11:56:19;;;;;;;6.97;5.10;;;16.10;99.90;;;;;;5019412;28;20174;-77
2022/04/14 11:58:45;;;;;;;7.53;5.30;;;16.00;99.90;;;;;;5035113;28;20180;-77
2022/04/14 12:01:12;;;;;;;6.77;5.07;;;16.10;99.90;;;;;;5052884;28;20170;-77
2022/04/14 12:03:38;;;;;;;7.87;5.23;;;16.10;99.90;;;;;;5052400;28;20641;-77
2022/04/14 12:06:06;;;;;;;6.70;4.70;;;16.30;99.90;;;;;;5035474;28;20170;-77
2022/04/14 12:08:32;;;;;;;6.87;5.50;;;16.40;99.90;;;;;;5035080;28;20702;-77
2022/04/14 12:11:14;;;;;;;6.10;4.33;;;16.50;99.90;;;;;;5035203;28;20265;-77
2022/04/14 12:13:40;;;;;;;5.50;4.20;;;16.50;99.90;;;;;;5034541;28;20150;-77
2022/04/14 12:16:11;;;;;;;5.93;3.60;;;16.40;99.90;;;;;;5052742;28;20190;-77
2022/04/14 12:18:39;;;;;;;6.33;3.77;;;16.40;99.90;;;;;;5018704;28;20181;-77
2022/04/14 12:21:06;;;;;;;5.00;3.47;;;16.40;99.90;;;;;;5019003;28;20668;-78
2022/04/14 12:23:33;;;;;;;3.60;3.13;;;16.40;99.90;;;;;;5034356;28;20625;-77
2022/04/14 12:26:03;;;;;;;3.27;2.67;;;16.50;99.90;;;;;;5052487;28;20633;-77
2022/04/14 12:28:29;;;;;;;4.63;3.10;;;16.40;99.90;;;;;;5018234;28;20198;-77
2022/04/14 12:30:55;;;;;;;3.57;3.13;;;16.20;99.90;;;;;;5034914;28;20174;-77
2022/04/14 12:33:26;;;;;;;4.13;2.93;;;16.00;99.90;;;;;;5034030;28;20264;-77
2022/04/14 12:36:04;;;;;;;6.57;2.87;;;15.80;99.90;;;;;;5034607;28;20679;-77
2022/04/14 12:38:29;;;;;;;4.90;2.77;;;15.60;99.90;;;;;;5036540;28;20168;-77
2022/04/14 12:41:00;;;;;;;4.03;2.90;;;15.60;99.90;;;;;;5001896;28;20182;-77
2022/04/14 12:43:37;;;;;;;3.53;2.97;;;15.70;99.90;;;;;;5034065;28;20195;-77
2022/04/14 12:46:22;;;;;;;4.13;3.07;;;15.70;99.90;;;;;;5034879;28;20165;-77
2022/04/14 12:48:59;;;;;;;3.03;2.67;;;15.70;99.90;;;;;;5018366;28;20186;-77